createdAt,value
2018-12-30T00:02:03.620Z,100169.36
2018-12-30T00:04:49.679Z,100145.14
2018-12-30T00:07:36.051Z,100066.45
2018-12-30T00:13:29.977Z,100136.81
2018-12-30T00:16:16.307Z,100138.64
2018-12-30T00:19:04.281Z,100079.53
2018-12-30T00:21:50.375Z,100123.71
2018-12-30T00:24:36.720Z,100129.85
2018-12-30T00:27:23.049Z,100130.67
2018-12-30T00:30:09.141Z,99955.17
2018-12-30T00:32:55.252Z,100086.66
2018-12-30T00:35:41.328Z,99950.52
2018-12-30T00:38:27.704Z,100132.56
2018-12-30T00:41:13.801Z,99942.41
2018-12-30T00:44:00.188Z,100125.53
2018-12-30T00:46:46.288Z,100115.06
2018-12-30T00:49:32.382Z,100121.45
2018-12-30T00:52:12.229Z,100053.44
2018-12-30T00:54:58.589Z,100151.50
2018-12-30T00:57:46.830Z,100153.15
2018-12-30T01:00:33.171Z,100131.01
2018-12-30T01:03:19.509Z,100157.38
2018-12-30T01:06:05.565Z,100165.06
2018-12-30T01:08:51.657Z,100167.80
2018-12-30T01:11:37.992Z,100066.49
2018-12-30T01:14:24.083Z,100040.36
2018-12-30T01:17:10.177Z,100147.29
2018-12-30T01:19:56.511Z,100147.92
2018-12-30T01:22:42.836Z,99971.60
2018-12-30T01:25:29.200Z,100142.47
2018-12-30T01:28:15.545Z,100147.55
2018-12-30T01:31:01.638Z,100145.73
2018-12-30T01:33:47.801Z,100145.67
2018-12-30T01:36:34.887Z,100148.72
2018-12-30T01:39:21.247Z,100133.95
2018-12-30T01:42:07.426Z,99951.88
2018-12-30T01:44:53.511Z,100134.80
2018-12-30T01:47:40.603Z,100144.44
2018-12-30T01:50:26.709Z,99952.09
2018-12-30T01:53:06.073Z,99975.61
2018-12-30T01:55:52.132Z,100144.69
2018-12-30T01:58:38.306Z,100143.95
2018-12-30T02:01:24.403Z,99983.42
2018-12-30T02:04:10.520Z,100143.11
2018-12-30T02:06:56.575Z,99974.27
2018-12-30T02:09:42.669Z,100127.58
2018-12-30T02:12:29.020Z,100106.48
2018-12-30T02:15:15.351Z,100052.55
2018-12-30T02:18:01.549Z,100138.61
2018-12-30T02:20:47.628Z,100137.15
2018-12-30T02:23:33.705Z,100141.63
2018-12-30T02:26:19.799Z,99892.02
2018-12-30T02:29:06.162Z,100131.47
2018-12-30T02:31:52.359Z,100130.38
2018-12-30T02:37:44.332Z,99877.07
2018-12-30T02:40:30.442Z,100132.31
2018-12-30T02:43:16.781Z,100137.38
2018-12-30T02:46:03.128Z,99949.73
2018-12-30T02:48:49.251Z,100119.42
2018-12-30T02:51:28.948Z,99865.24
2018-12-30T02:54:15.284Z,100121.97
2018-12-30T02:57:01.647Z,99832.13
2018-12-30T02:59:47.833Z,100020.45
2018-12-30T03:02:34.143Z,100102.77
2018-12-30T03:05:20.249Z,99848.91
2018-12-30T03:08:06.576Z,100126.72
2018-12-30T03:10:52.636Z,100094.06
2018-12-30T03:13:38.735Z,100115.97
2018-12-30T03:16:24.827Z,100101.83
2018-12-30T03:19:10.899Z,100080.61
2018-12-30T03:21:59.443Z,100083.14
2018-12-30T03:24:45.376Z,99873.95
2018-12-30T03:27:31.762Z,100108.56
2018-12-30T03:30:18.143Z,100032.00
2018-12-30T03:33:04.225Z,99864.80
2018-12-30T03:35:50.320Z,100092.12
2018-12-30T03:38:36.403Z,100101.00
2018-12-30T03:41:22.750Z,100088.67
2018-12-30T03:44:08.833Z,100091.58
2018-12-30T03:46:55.199Z,100079.25
2018-12-30T03:49:41.521Z,100066.17
2018-12-30T03:52:20.888Z,100073.47
2018-12-30T03:55:06.953Z,99933.77
2018-12-30T03:57:53.331Z,100070.07
2018-12-30T04:00:39.470Z,100073.52
2018-12-30T04:03:25.563Z,100076.70
2018-12-30T04:06:12.031Z,99847.09
2018-12-30T04:08:58.364Z,99960.44
2018-12-30T04:11:44.469Z,100081.39
2018-12-30T04:14:30.550Z,99857.47
2018-12-30T04:17:16.626Z,100007.59
2018-12-30T04:23:30.990Z,100090.04
2018-12-30T04:26:17.059Z,100018.50
2018-12-30T04:29:03.110Z,100094.53
2018-12-30T04:31:49.205Z,99895.55
2018-12-30T04:34:35.534Z,99845.90
2018-12-30T04:37:21.730Z,99962.56
2018-12-30T04:40:07.837Z,100093.47
2018-12-30T04:42:54.200Z,100106.81
2018-12-30T04:45:40.279Z,100092.63
2018-12-30T04:48:26.398Z,100111.05
2018-12-30T04:51:12.508Z,100021.91
2018-12-30T04:53:53.254Z,100106.87
2018-12-30T04:56:39.373Z,100123.78
2018-12-30T04:59:25.464Z,100112.51
2018-12-30T05:02:11.794Z,100112.64
2018-12-30T05:04:57.867Z,99907.86
2018-12-30T05:07:44.246Z,100107.53
2018-12-30T05:10:30.775Z,99967.30
2018-12-30T05:13:17.142Z,100103.89
2018-12-30T05:16:03.494Z,100036.56
2018-12-30T05:18:49.602Z,99993.45
2018-12-30T05:21:35.692Z,100132.00
2018-12-30T05:24:21.777Z,99928.88
2018-12-30T05:27:08.176Z,100057.74
2018-12-30T05:29:54.227Z,99939.67
2018-12-30T05:32:40.304Z,100159.07
2018-12-30T05:35:26.397Z,100155.34
2018-12-30T05:38:13.281Z,100156.92
2018-12-30T05:40:59.626Z,100171.56
2018-12-30T05:43:45.920Z,100097.83
2018-12-30T05:46:32.251Z,100178.84
2018-12-30T05:49:18.366Z,100185.52
2018-12-30T05:51:58.928Z,100185.25
2018-12-30T05:54:45.267Z,100182.44
2018-12-30T05:57:31.656Z,100185.25
2018-12-30T06:00:17.722Z,100198.55
2018-12-30T06:03:04.083Z,100212.14
2018-12-30T06:05:50.439Z,100172.65
2018-12-30T06:08:36.520Z,100233.45
2018-12-30T06:11:22.832Z,100235.62
2018-12-30T06:14:08.924Z,100159.91
2018-12-30T06:16:55.004Z,100261.84
2018-12-30T06:19:41.075Z,100263.56
2018-12-30T06:22:27.458Z,100294.41
2018-12-30T06:25:13.536Z,100150.03
2018-12-30T06:27:59.624Z,100308.20
2018-12-30T06:30:45.706Z,100220.08
2018-12-30T06:33:32.035Z,100291.28
2018-12-30T06:36:18.220Z,100332.66
2018-12-30T06:39:04.850Z,100310.05
2018-12-30T06:41:51.199Z,100307.59
2018-12-30T06:44:37.517Z,100314.42
2018-12-30T06:47:23.611Z,100334.70
2018-12-30T06:50:10.007Z,100309.55
2018-12-30T06:52:57.410Z,100331.13
2018-12-30T06:55:37.802Z,100331.80
2018-12-30T06:58:23.900Z,100359.08
2018-12-30T07:01:09.957Z,100363.96
2018-12-30T07:03:56.065Z,100399.02
2018-12-30T07:06:42.163Z,100371.70
2018-12-30T07:09:28.475Z,100377.36
2018-12-30T07:12:14.827Z,100383.48
2018-12-30T07:15:01.184Z,100382.05
2018-12-30T07:17:47.543Z,100385.16
2018-12-30T07:20:55.402Z,100391.47
2018-12-30T07:23:41.497Z,100200.84
2018-12-30T07:26:27.841Z,100230.17
2018-12-30T07:29:14.160Z,100410.48
2018-12-30T07:32:00.233Z,100201.83
2018-12-30T07:34:46.294Z,100260.19
2018-12-30T07:37:32.837Z,100429.66
2018-12-30T07:40:18.949Z,100430.08
2018-12-30T07:43:05.061Z,100445.86
2018-12-30T07:45:51.132Z,100444.69
2018-12-30T07:48:37.210Z,100429.55
2018-12-30T07:51:23.313Z,100264.58
2018-12-30T07:54:02.895Z,100426.56
2018-12-30T07:56:49.261Z,100476.08
2018-12-30T07:59:35.613Z,100400.89
2018-12-30T08:02:21.721Z,100463.97
2018-12-30T08:05:07.817Z,100465.98
2018-12-30T08:07:53.901Z,100476.06
2018-12-30T08:10:40.287Z,100411.80
2018-12-30T08:13:26.440Z,100469.17
2018-12-30T08:16:12.581Z,100500.11
2018-12-30T08:18:58.702Z,100502.95
2018-12-30T08:21:44.761Z,100503.89
2018-12-30T08:24:30.861Z,100501.75
2018-12-30T08:27:16.976Z,100524.27
2018-12-30T08:30:03.956Z,100515.55
2018-12-30T08:32:50.028Z,100508.09
2018-12-30T08:35:16.219Z,100223.11
2018-12-30T08:37:42.822Z,100513.05
2018-12-30T08:40:09.016Z,100545.59
2018-12-30T08:42:55.382Z,100547.01
2018-12-30T08:45:21.879Z,100563.70
2018-12-30T08:48:08.217Z,100561.77
2018-12-30T08:50:34.421Z,100595.50
2018-12-30T08:53:00.667Z,100588.78
2018-12-30T08:55:46.846Z,100576.89
2018-12-30T08:58:32.939Z,100596.97
2018-12-30T09:01:19.125Z,100609.66
2018-12-30T09:04:05.227Z,100616.66
2018-12-30T09:06:52.154Z,100639.20
2018-12-30T09:09:39.582Z,100619.44
2018-12-30T09:12:25.911Z,100596.17
2018-12-30T09:15:12.010Z,100658.51
2018-12-30T09:17:58.108Z,100564.81
2018-12-30T09:20:44.191Z,100563.61
2018-12-30T09:23:37.048Z,100573.30
2018-12-30T09:26:18.488Z,100420.00
2018-12-30T09:29:04.571Z,100675.97
2018-12-30T09:31:50.891Z,100674.19
2018-12-30T09:34:36.992Z,100721.60
2018-12-30T09:37:23.069Z,100666.38
2018-12-30T09:40:09.435Z,100669.67
2018-12-30T09:42:55.505Z,100682.70
2018-12-30T09:45:41.580Z,100614.45
2018-12-30T09:48:33.695Z,100707.08
2018-12-30T09:51:15.675Z,100682.73
2018-12-30T09:53:55.292Z,100558.98
2018-12-30T09:56:41.374Z,100687.20
2018-12-30T09:59:07.974Z,100701.87
2018-12-30T10:01:34.516Z,100695.41
2018-12-30T10:04:20.623Z,100695.64
2018-12-30T10:07:06.992Z,100697.06
2018-12-30T10:09:53.095Z,100708.54
2018-12-30T10:12:39.224Z,100712.39
2018-12-30T10:15:25.321Z,100710.53
2018-12-30T10:18:11.683Z,100493.71
2018-12-30T10:20:57.783Z,100720.22
2018-12-30T10:23:44.140Z,100733.53
2018-12-30T10:26:30.236Z,100718.71
2018-12-30T10:29:16.617Z,100735.30
2018-12-30T10:32:02.938Z,100443.30
2018-12-30T10:34:49.032Z,100632.97
2018-12-30T10:37:35.434Z,100742.75
2018-12-30T10:40:21.645Z,100747.55
2018-12-30T10:43:08.214Z,100741.78
2018-12-30T10:45:54.611Z,100734.28
2018-12-30T10:48:40.691Z,100738.49
2018-12-30T10:51:27.063Z,100489.18
2018-12-30T10:54:07.511Z,100751.20
2018-12-30T10:57:15.635Z,100746.58
2018-12-30T11:00:02.140Z,100571.28
2018-12-30T11:02:48.400Z,100745.42
2018-12-30T11:05:34.457Z,100748.44
2018-12-30T11:08:20.773Z,100664.21
2018-12-30T11:11:07.233Z,100743.27
2018-12-30T11:13:53.577Z,100758.21
2018-12-30T11:16:39.949Z,100643.44
2018-12-30T11:19:26.275Z,100741.19
2018-12-30T11:22:12.617Z,100739.34
2018-12-30T11:24:58.770Z,100761.46
2018-12-30T11:27:44.864Z,100529.46
2018-12-30T11:30:30.980Z,100509.45
2018-12-30T11:33:17.079Z,100731.42
2018-12-30T11:36:03.460Z,100728.80
2018-12-30T11:38:49.666Z,100654.73
2018-12-30T11:41:36.039Z,100721.69
2018-12-30T11:44:42.323Z,100738.52
2018-12-30T11:47:28.707Z,100732.76
2018-12-30T11:50:15.082Z,100725.23
2018-12-30T11:53:01.462Z,100736.80
2018-12-30T11:55:41.494Z,100657.67
2018-12-30T11:58:27.644Z,100639.89
2018-12-30T12:01:13.768Z,100740.94
2018-12-30T12:04:00.165Z,100743.47
2018-12-30T12:06:46.519Z,100736.37
2018-12-30T12:12:40.226Z,100751.26
2018-12-30T12:15:26.300Z,100738.66
2018-12-30T12:18:12.351Z,100738.28
2018-12-30T12:21:05.928Z,100584.04
2018-12-30T12:23:52.140Z,100742.55
2018-12-30T12:26:38.507Z,100754.69
2018-12-30T12:29:24.562Z,100754.20
2018-12-30T12:32:10.692Z,100741.77
2018-12-30T12:34:57.006Z,100586.09
2018-12-30T12:37:43.382Z,100498.97
2018-12-30T12:40:29.471Z,100728.95
2018-12-30T12:43:15.586Z,100562.72
2018-12-30T12:46:01.679Z,100729.17
2018-12-30T12:48:48.047Z,100737.14
2018-12-30T12:51:34.234Z,100736.44
2018-12-30T12:54:14.257Z,100505.06
2018-12-30T12:57:00.755Z,100739.89
2018-12-30T12:59:46.835Z,100631.14
2018-12-30T13:02:33.236Z,100735.52
2018-12-30T13:05:19.327Z,100728.25
2018-12-30T13:08:07.099Z,100740.88
2018-12-30T13:10:54.078Z,100743.35
2018-12-30T13:13:40.271Z,100514.34
2018-12-30T13:16:26.342Z,100761.38
2018-12-30T13:19:12.409Z,100760.30
2018-12-30T13:21:58.796Z,100775.13
2018-12-30T13:24:44.863Z,100750.70
2018-12-30T13:27:31.257Z,100526.92
2018-12-30T13:30:17.325Z,100745.35
2018-12-30T13:33:03.653Z,100756.60
2018-12-30T13:35:49.720Z,100751.05
2018-12-30T13:38:35.828Z,100767.80
2018-12-30T13:41:21.879Z,100708.56
2018-12-30T13:44:07.989Z,100780.45
2018-12-30T13:46:54.042Z,100484.44
2018-12-30T13:49:40.369Z,100785.51
2018-12-30T13:52:26.458Z,100505.81
2018-12-30T13:55:05.696Z,100814.61
2018-12-30T13:57:52.014Z,100790.66
2018-12-30T14:00:38.369Z,100794.80
2018-12-30T14:03:24.468Z,100816.77
2018-12-30T14:06:10.563Z,100809.17
2018-12-30T14:08:56.997Z,100807.91
2018-12-30T14:11:24.713Z,100804.77
2018-12-30T14:14:11.495Z,100808.64
2018-12-30T14:16:57.609Z,100576.24
2018-12-30T14:19:43.684Z,100631.50
2018-12-30T14:22:30.090Z,100821.05
2018-12-30T14:25:16.171Z,100835.10
2018-12-30T14:28:02.234Z,100812.73
2018-12-30T14:30:48.304Z,100589.67
2018-12-30T14:33:34.405Z,100737.83
2018-12-30T14:36:20.460Z,100821.98
2018-12-30T14:39:06.583Z,100832.91
2018-12-30T14:41:52.649Z,100844.98
2018-12-30T14:44:39.001Z,100828.05
2018-12-30T14:47:25.407Z,100639.70
2018-12-30T14:50:11.772Z,100858.45
2018-12-30T14:52:57.862Z,100773.09
2018-12-30T14:55:37.123Z,100863.30
2018-12-30T14:58:23.550Z,100766.96
2018-12-30T15:01:14.725Z,100866.98
2018-12-30T15:03:57.642Z,100625.88
2018-12-30T15:06:43.969Z,100848.08
2018-12-30T15:09:35.676Z,100856.50
2018-12-30T15:12:18.098Z,100870.86
2018-12-30T15:15:04.522Z,100862.19
2018-12-30T15:17:50.598Z,100774.78
2018-12-30T15:20:36.749Z,100664.17
2018-12-30T15:23:22.842Z,100684.53
2018-12-30T15:26:08.941Z,100689.48
2018-12-30T15:28:55.026Z,100856.84
2018-12-30T15:31:41.365Z,100783.55
2018-12-30T15:34:27.474Z,100547.55
2018-12-30T15:37:13.862Z,100857.40
2018-12-30T15:40:00.274Z,100619.44
2018-12-30T15:42:46.680Z,100881.05
2018-12-30T15:45:33.041Z,100874.77
2018-12-30T15:48:19.419Z,100866.31
2018-12-30T15:51:05.830Z,100863.14
2018-12-30T15:53:32.022Z,100712.12
2018-12-30T15:56:12.065Z,100864.55
2018-12-30T15:58:58.143Z,100902.72
2018-12-30T16:01:44.245Z,100723.48
2018-12-30T16:04:30.805Z,100885.59
2018-12-30T16:07:17.196Z,100880.38
2018-12-30T16:10:25.088Z,100578.42
2018-12-30T16:13:11.152Z,100908.55
2018-12-30T16:15:57.310Z,100807.99
2018-12-30T16:18:43.414Z,100905.94
2018-12-30T16:21:29.798Z,100649.86
2018-12-30T16:24:16.150Z,100739.63
2018-12-30T16:27:02.501Z,100904.16
2018-12-30T16:29:48.636Z,100892.80
2018-12-30T16:32:34.701Z,100711.32
2018-12-30T16:35:21.070Z,100923.06
2018-12-30T16:38:07.674Z,100830.25
2018-12-30T16:40:53.821Z,100766.86
2018-12-30T16:43:40.189Z,100927.90
2018-12-30T16:46:26.300Z,100934.20
2018-12-30T16:49:12.617Z,100635.33
2018-12-30T16:51:58.999Z,100783.14
2018-12-30T16:54:38.817Z,100939.86
2018-12-30T16:57:25.244Z,100697.35
2018-12-30T17:00:11.346Z,100945.07
2018-12-30T17:02:57.807Z,100722.84
2018-12-30T17:05:44.179Z,100710.66
2018-12-30T17:08:30.291Z,100794.52
2018-12-30T17:11:16.639Z,100953.35
2018-12-30T17:14:02.739Z,100861.44
2018-12-30T17:16:49.104Z,100804.48
2018-12-30T17:19:35.197Z,100962.72
2018-12-30T17:22:21.500Z,100966.00
2018-12-30T17:25:07.595Z,100969.19
2018-12-30T17:27:53.904Z,100962.51
2018-12-30T17:30:40.007Z,100954.56
2018-12-30T17:33:26.086Z,100796.13
2018-12-30T17:36:12.441Z,100952.41
2018-12-30T17:38:58.507Z,100623.55
2018-12-30T17:41:44.909Z,100948.77
2018-12-30T17:44:30.976Z,100808.34
2018-12-30T17:47:17.070Z,100805.95
2018-12-30T17:50:25.206Z,100960.30
2018-12-30T17:53:11.261Z,100801.44
2018-12-30T17:55:51.190Z,100870.59
2018-12-30T17:58:37.329Z,100804.13
2018-12-30T18:01:23.474Z,100974.77
2018-12-30T18:04:09.821Z,100982.45
2018-12-30T18:06:55.920Z,100969.57
2018-12-30T18:09:42.001Z,100903.28
2018-12-30T18:12:29.614Z,100975.16
2018-12-30T18:15:16.008Z,100968.20
2018-12-30T18:18:02.164Z,100962.97
2018-12-30T18:20:48.233Z,100896.35
2018-12-30T18:23:34.604Z,100989.64
2018-12-30T18:26:40.832Z,100844.03
2018-12-30T18:29:27.195Z,100997.19
2018-12-30T18:32:13.574Z,100689.14
2018-12-30T18:34:59.953Z,100739.66
2018-12-30T18:37:46.019Z,101010.05
2018-12-30T18:40:32.483Z,101020.28
2018-12-30T18:43:18.637Z,101005.94
2018-12-30T18:46:05.337Z,100709.33
2018-12-30T18:48:51.991Z,101022.96
2018-12-30T18:51:38.325Z,100977.63
2018-12-30T18:54:24.488Z,100767.12
2018-12-30T18:57:04.019Z,101053.05
2018-12-30T18:59:50.342Z,101027.78
2018-12-30T19:02:36.817Z,100962.20
2018-12-30T19:05:22.920Z,100783.17
2018-12-30T19:08:09.048Z,100942.53
2018-12-30T19:10:55.460Z,101042.41
2018-12-30T19:13:41.784Z,101048.70
2018-12-30T19:16:27.912Z,101040.92
2018-12-30T19:19:33.869Z,101012.19
2018-12-30T19:22:20.272Z,101035.89
2018-12-30T19:25:06.338Z,101048.47
2018-12-30T19:27:52.648Z,101035.00
2018-12-30T19:30:38.976Z,100951.20
2018-12-30T19:33:25.568Z,101044.79
2018-12-30T19:36:12.442Z,101040.87
2018-12-30T19:38:58.813Z,100783.66
2018-12-30T19:41:39.437Z,100790.57
2018-12-30T19:44:26.054Z,100912.72
2018-12-30T19:47:12.148Z,101044.27
2018-12-30T19:49:58.283Z,101061.98
2018-12-30T19:52:44.377Z,101060.56
2018-12-30T19:55:30.502Z,100978.89
2018-12-30T19:58:16.905Z,100985.23
2018-12-30T20:01:03.100Z,100951.82
2018-12-30T20:03:49.450Z,100886.28
2018-12-30T20:06:35.897Z,100902.30
2018-12-30T20:09:22.504Z,100885.27
2018-12-30T20:12:02.456Z,101067.02
2018-12-30T20:14:48.831Z,100956.28
2018-12-30T20:17:35.127Z,101048.38
2018-12-30T20:20:21.246Z,101043.41
2018-12-30T20:23:09.342Z,100795.48
2018-12-30T20:25:55.700Z,100955.98
2018-12-30T20:28:42.057Z,101044.20
2018-12-30T20:31:28.283Z,100793.81
2018-12-30T20:34:14.368Z,101047.56
2018-12-30T20:37:00.459Z,101033.37
2018-12-30T20:39:46.862Z,101047.17
2018-12-30T20:42:33.101Z,100795.72
2018-12-30T20:45:12.814Z,101033.14
2018-12-30T20:47:59.156Z,101038.84
2018-12-30T20:50:45.534Z,101037.00
2018-12-30T20:53:32.176Z,100771.81
2018-12-30T20:56:18.521Z,101035.33
2018-12-30T20:59:04.924Z,101021.16
2018-12-30T21:01:50.995Z,101029.40
2018-12-30T21:04:37.125Z,101026.74
2018-12-30T21:07:23.415Z,100791.53
2018-12-30T21:10:09.763Z,100731.02
2018-12-30T21:12:56.093Z,100996.14
2018-12-30T21:15:42.176Z,100743.99
2018-12-30T21:18:28.691Z,100781.09
2018-12-30T21:21:15.155Z,100959.31
2018-12-30T21:24:01.531Z,100802.04
2018-12-30T21:26:49.327Z,100965.23
2018-12-30T21:29:36.861Z,100805.52
2018-12-30T21:32:17.068Z,100806.25
2018-12-30T21:38:31.531Z,100987.39
2018-12-30T21:41:17.640Z,101081.50
2018-12-30T21:44:03.817Z,100905.16
2018-12-30T21:46:49.961Z,100984.64
2018-12-30T21:49:36.309Z,100775.38
2018-12-30T21:52:22.691Z,101071.48
2018-12-30T21:55:30.848Z,100811.18
2018-12-30T21:58:17.103Z,101080.02
2018-12-30T22:01:03.218Z,100848.34
2018-12-30T22:03:49.774Z,101065.20
2018-12-30T22:06:36.084Z,101076.70
2018-12-30T22:09:22.738Z,101073.80
2018-12-30T22:12:09.155Z,101072.15
2018-12-30T22:14:55.520Z,100826.90
2018-12-30T22:17:41.719Z,100913.91
2018-12-30T22:20:28.099Z,101101.35
2018-12-30T22:23:14.189Z,100877.87
2018-12-30T22:26:00.559Z,100998.59
2018-12-30T22:28:46.923Z,101093.44
2018-12-30T22:31:33.934Z,101084.39
2018-12-30T22:34:13.671Z,101063.58
2018-12-30T22:36:59.777Z,100840.39
2018-12-30T22:40:06.436Z,101110.98
2018-12-30T22:42:52.545Z,100863.63
2018-12-30T22:45:38.913Z,101111.64
2018-12-30T22:48:25.206Z,101095.00
2018-12-30T22:51:11.551Z,101118.63
2018-12-30T22:53:57.628Z,101120.95
2018-12-30T22:56:43.745Z,101065.09
2018-12-30T22:59:30.095Z,100883.55
2018-12-30T23:02:16.459Z,101012.67
2018-12-30T23:05:03.303Z,101110.91
2018-12-30T23:07:49.671Z,101115.97
2018-12-30T23:10:36.035Z,101092.82
2018-12-30T23:13:22.563Z,100923.25
2018-12-30T23:16:08.683Z,101117.64
2018-12-30T23:18:55.014Z,101104.26
2018-12-30T23:21:41.124Z,100848.56
2018-12-30T23:24:27.446Z,101109.38
2018-12-30T23:27:13.729Z,101114.63
2018-12-30T23:29:59.815Z,100923.94
2018-12-30T23:32:46.281Z,101117.77
2018-12-30T23:35:26.376Z,101110.69
2018-12-30T23:38:12.452Z,100841.64
2018-12-30T23:40:58.788Z,101130.81
2018-12-30T23:43:44.885Z,101120.37
2018-12-30T23:46:30.970Z,100921.97
2018-12-30T23:49:17.312Z,101141.38
2018-12-30T23:52:03.401Z,101035.90
2018-12-30T23:54:49.760Z,101129.75
2018-12-30T23:57:35.831Z,101116.02
